Time;durP1;ratioP1;P1;durP2;ratioP2;P2;SDS_P1;SDS_P2;PMS_P1;PMS_P2;Temp;Humidity;BMP_temperature;BMP_pressure;BME280_temperature;BME280_humidity;BME280_pressure;Samples;Min_cycle;Max_cycle;Signal;HPM_P1;HPM_P2
2022/04/01 00:00:35;;;;;;;20.30;12.30;;;;;;;4.83;100.00;96174.34;5063831;28;20215;-64
2022/04/01 00:03:02;;;;;;;20.93;12.30;;;;;;;4.83;100.00;96174.34;5058844;28;20258;-63
2022/04/01 00:05:30;;;;;;;20.57;12.67;;;;;;;4.81;100.00;96171.00;5059952;28;20219;-65
2022/04/01 00:07:56;;;;;;;18.67;12.30;;;;;;;4.71;100.00;96169.22;5059506;28;20223;-64
2022/04/01 00:10:23;;;;;;;20.83;12.50;;;;;;;4.66;100.00;96171.38;5063074;28;20569;-64
2022/04/01 00:12:49;;;;;;;17.27;12.10;;;;;;;4.67;100.00;96173.88;5060588;28;20220;-63
2022/04/01 00:15:16;;;;;;;18.67;11.93;;;;;;;4.64;100.00;96181.13;5059688;28;20246;-63
2022/04/01 00:17:43;;;;;;;18.20;11.57;;;;;;;4.58;100.00;96173.75;5059248;28;20658;-63
2022/04/01 00:20:11;;;;;;;18.13;12.67;;;;;;;4.53;100.00;96170.66;5062057;28;20212;-64
2022/04/01 00:22:39;;;;;;;18.97;12.80;;;;;;;4.54;100.00;96173.16;5060695;28;20214;-63
2022/04/01 00:25:06;;;;;;;19.77;12.30;;;;;;;4.48;100.00;96171.00;5059402;28;20597;-64
2022/04/01 00:27:33;;;;;;;18.30;12.33;;;;;;;4.54;100.00;96181.00;5059494;28;20212;-63
2022/04/01 00:29:59;;;;;;;20.53;12.63;;;;;;;4.53;100.00;96171.47;5060119;28;20221;-65
2022/04/01 00:32:26;;;;;;;19.57;12.07;;;;;;;4.58;100.00;96179.78;5059883;28;20222;-65
2022/04/01 00:34:52;;;;;;;21.37;12.87;;;;;;;4.57;100.00;96182.50;5059045;28;20218;-65
2022/04/01 00:37:19;;;;;;;19.60;12.47;;;;;;;4.66;100.00;96176.59;5059297;28;20226;-65
2022/04/01 00:39:47;;;;;;;18.93;11.93;;;;;;;4.59;100.00;96176.22;5061334;28;20213;-64
2022/04/01 00:42:13;;;;;;;20.23;12.90;;;;;;;4.55;100.00;96174.81;5060917;28;20217;-65
2022/04/01 00:44:41;;;;;;;19.17;12.50;;;;;;;4.49;100.00;96175.28;5059148;28;20239;-64
2022/04/01 00:47:10;;;;;;;19.20;12.93;;;;;;;4.39;100.00;96176.91;5044370;28;20231;-65
2022/04/01 00:49:37;;;;;;;19.20;13.17;;;;;;;4.42;100.00;96171.47;5060007;28;20214;-64
2022/04/01 00:52:06;;;;;;;18.03;11.70;;;;;;;4.45;100.00;96173.84;5060350;28;20550;-64
2022/04/01 00:54:35;;;;;;;18.13;12.00;;;;;;;4.40;100.00;96175.13;5057188;28;20212;-63
2022/04/01 00:57:03;;;;;;;18.53;12.67;;;;;;;4.29;100.00;96178.53;5058803;28;20249;-63
2022/04/01 00:59:30;;;;;;;20.93;12.77;;;;;;;4.34;100.00;96176.41;5054046;28;20222;-63
2022/04/01 01:01:56;;;;;;;18.30;12.40;;;;;;;4.26;100.00;96180.56;5052466;28;20243;-63
2022/04/01 01:04:24;;;;;;;20.27;12.73;;;;;;;4.20;100.00;96179.25;5049428;28;20221;-63
2022/04/01 01:06:53;;;;;;;21.27;13.03;;;;;;;4.21;100.00;96173.06;5047462;28;20255;-64
2022/04/01 01:09:20;;;;;;;17.67;11.73;;;;;;;4.18;100.00;96175.09;5052908;28;20698;-64
2022/04/01 01:11:49;;;;;;;17.07;11.37;;;;;;;4.20;100.00;96174.03;5052209;28;20217;-64
2022/04/01 01:14:24;;;;;;;19.70;12.43;;;;;;;4.14;100.00;96168.41;5058470;28;20582;-65
2022/04/01 01:16:50;;;;;;;19.23;12.50;;;;;;;4.23;100.00;96168.53;5058407;28;20277;-64
2022/04/01 01:19:18;;;;;;;18.87;12.30;;;;;;;4.30;100.00;96171.53;5053235;28;20213;-64
2022/04/01 01:21:49;;;;;;;18.03;11.33;;;;;;;4.29;100.00;96162.84;5056455;28;20210;-63
2022/04/01 01:24:17;;;;;;;16.17;11.10;;;;;;;4.30;100.00;96169.78;5057953;28;20217;-64
2022/04/01 01:26:51;;;;;;;16.83;11.00;;;;;;;4.28;100.00;96171.66;5058280;28;20751;-64
2022/04/01 01:29:19;;;;;;;20.20;11.40;;;;;;;4.24;100.00;96167.63;5060774;28;20217;-65
2022/04/01 01:31:46;;;;;;;17.90;11.57;;;;;;;4.30;100.00;96169.78;5058286;28;20217;-65
2022/04/01 01:34:13;;;;;;;16.43;11.07;;;;;;;4.21;100.00;96167.84;5057962;28;20260;-65
2022/04/01 01:36:40;;;;;;;17.50;11.23;;;;;;;4.27;100.00;96159.53;5058918;28;20731;-65
2022/04/01 01:39:06;;;;;;;15.87;11.37;;;;;;;4.27;100.00;96164.75;5060596;28;20221;-64
2022/04/01 01:41:33;;;;;;;16.67;10.70;;;;;;;4.28;100.00;96163.81;5057522;28;20218;-63
2022/04/01 01:44:01;;;;;;;15.37;10.77;;;;;;;4.31;100.00;96166.22;5057430;28;20568;-62
2022/04/01 01:46:27;;;;;;;18.80;11.43;;;;;;;4.35;100.00;96169.41;5056449;28;20715;-62
2022/04/01 01:48:54;;;;;;;15.60;10.80;;;;;;;4.40;100.00;96167.28;5060859;28;20590;-62
2022/04/01 01:56:50;;;;;;;14.43;9.87;;;;;;;4.34;100.00;96165.16;5060347;28;20317;-62
2022/04/01 01:59:18;;;;;;;15.50;10.27;;;;;;;4.31;100.00;96166.22;5057750;28;20218;-62
2022/04/01 02:01:45;;;;;;;17.87;11.27;;;;;;;4.29;100.00;96173.31;5046312;28;20244;-62
2022/04/01 02:04:12;;;;;;;17.07;11.30;;;;;;;4.34;100.00;96160.72;5056514;28;20213;-62
2022/04/01 02:06:39;;;;;;;16.87;11.23;;;;;;;4.36;100.00;96153.63;5060113;28;20734;-62
2022/04/01 02:09:06;;;;;;;18.27;11.97;;;;;;;4.43;100.00;96156.59;5057553;28;20222;-62
2022/04/01 02:11:32;;;;;;;16.07;10.73;;;;;;;4.38;100.00;96156.09;5057456;28;20239;-62
2022/04/01 02:13:59;;;;;;;16.97;11.23;;;;;;;4.30;100.00;96156.72;5056315;28;20214;-63
2022/04/01 02:16:26;;;;;;;15.83;10.73;;;;;;;4.29;100.00;96162.84;5060336;28;20236;-63
2022/04/01 02:18:53;;;;;;;17.40;11.77;;;;;;;4.28;100.00;96158.59;5057646;28;20217;-62
2022/04/01 02:21:20;;;;;;;15.83;10.80;;;;;;;4.25;100.00;96160.59;5057425;28;20208;-63
2022/04/01 02:23:48;;;;;;;16.87;11.97;;;;;;;4.21;100.00;96160.00;5058067;28;20221;-63
2022/04/01 02:26:15;;;;;;;17.23;10.30;;;;;;;4.22;100.00;96161.66;5060914;28;20216;-62
2022/04/01 02:28:43;;;;;;;17.10;11.20;;;;;;;4.29;100.00;96157.63;5057285;28;20221;-63
2022/04/01 02:31:12;;;;;;;15.57;10.03;;;;;;;4.18;100.00;96160.25;5057174;28;20218;-63
2022/04/01 02:33:40;;;;;;;15.20;10.97;;;;;;;4.16;100.00;96159.50;5058094;28;20219;-62
2022/04/01 02:36:10;;;;;;;14.80;10.53;;;;;;;4.11;100.00;96164.28;5060170;28;20249;-62
2022/04/01 02:38:38;;;;;;;17.83;11.67;;;;;;;4.09;100.00;96160.91;5055550;28;20219;-62
2022/04/01 02:41:05;;;;;;;15.07;10.57;;;;;;;4.10;100.00;96159.97;5057363;28;20212;-62
2022/04/01 02:43:32;;;;;;;16.07;10.83;;;;;;;4.05;100.00;96169.09;5058506;28;20292;-62
2022/04/01 02:45:59;;;;;;;17.53;11.53;;;;;;;4.12;100.00;96168.53;5060152;28;20218;-62
2022/04/01 02:48:27;;;;;;;13.83;10.33;;;;;;;4.15;100.00;96165.69;5057326;28;20639;-62
2022/04/01 02:50:54;;;;;;;15.97;10.53;;;;;;;4.03;100.00;96164.00;5057485;28;20219;-63
2022/04/01 02:53:21;;;;;;;17.50;11.13;;;;;;;4.01;100.00;96163.28;5058380;28;20210;-63
2022/04/01 02:55:47;;;;;;;17.33;10.93;;;;;;;4.02;100.00;96162.31;5060643;28;20234;-62
2022/04/01 02:58:14;;;;;;;13.13;9.60;;;;;;;3.99;100.00;96159.97;5060868;28;20216;-62
2022/04/01 03:00:41;;;;;;;14.40;10.30;;;;;;;4.05;100.00;96164.72;5061317;28;20218;-62
2022/04/01 03:03:09;;;;;;;15.97;10.20;;;;;;;3.98;100.00;96168.72;5061217;28;20237;-62
2022/04/01 03:05:38;;;;;;;16.43;10.67;;;;;;;3.94;100.00;96171.69;5062564;28;20211;-62
2022/04/01 03:08:06;;;;;;;15.33;10.80;;;;;;;3.96;100.00;96175.00;5061001;28;20221;-62
2022/04/01 03:10:33;;;;;;;15.67;11.00;;;;;;;3.94;100.00;96172.53;5060623;28;20220;-62
2022/04/01 03:13:00;;;;;;;19.40;12.53;;;;;;;3.87;100.00;96173.09;5061715;28;20215;-62
2022/04/01 03:15:28;;;;;;;15.97;11.53;;;;;;;3.90;100.00;96165.00;5063202;28;20216;-62
2022/04/01 03:17:55;;;;;;;17.17;11.70;;;;;;;3.84;100.00;96176.75;5049880;28;20253;-61
2022/04/01 03:20:22;;;;;;;16.27;11.00;;;;;;;3.80;100.00;96180.53;5060931;28;20254;-63
2022/04/01 03:22:50;;;;;;;17.10;11.43;;;;;;;3.76;100.00;96173.88;5061443;28;20260;-63
2022/04/01 03:25:20;;;;;;;15.77;11.27;;;;;;;3.74;100.00;96183.59;5063956;28;20248;-62
2022/04/01 03:27:46;;;;;;;16.87;11.57;;;;;;;3.83;100.00;96174.25;5060495;28;20561;-61
2022/04/01 03:30:14;;;;;;;16.53;11.93;;;;;;;3.91;100.00;96177.97;5058753;28;20223;-62
2022/04/01 03:32:42;;;;;;;15.53;11.43;;;;;;;3.90;100.00;96181.53;5061747;28;20219;-63
2022/04/01 03:35:09;;;;;;;15.60;11.37;;;;;;;3.85;100.00;96183.63;5063342;28;20218;-63
2022/04/01 03:37:36;;;;;;;17.27;12.67;;;;;;;3.83;100.00;96184.69;5060066;28;20702;-64
2022/04/01 03:40:03;;;;;;;16.63;11.67;;;;;;;3.79;100.00;96189.31;5060375;28;20219;-63
2022/04/01 03:42:31;;;;;;;14.50;11.17;;;;;;;3.80;100.00;96185.75;5061442;28;20224;-64
2022/04/01 03:45:01;;;;;;;14.70;11.00;;;;;;;3.85;100.00;96194.09;5063041;28;20319;-64
2022/04/01 03:47:36;;;;;;;14.83;11.20;;;;;;;3.84;100.00;96192.44;5060187;28;20588;-64
2022/04/01 03:50:04;;;;;;;14.07;11.00;;;;;;;3.83;100.00;96190.75;5059802;28;20706;-63
2022/04/01 03:52:33;;;;;;;14.60;10.73;;;;;;;3.84;100.00;96192.44;5062432;28;20208;-63
2022/04/01 03:55:04;;;;;;;14.03;10.43;;;;;;;3.88;100.00;96188.66;5061372;28;20214;-63
2022/04/01 03:57:35;;;;;;;13.77;10.07;;;;;;;3.86;100.00;96189.72;5057915;28;20242;-63
2022/04/01 04:00:02;;;;;;;15.60;11.03;;;;;;;3.83;100.00;96190.75;5059951;28;20293;-62
2022/04/01 04:02:31;;;;;;;15.00;10.93;;;;;;;3.94;100.00;96203.88;5063336;28;20237;-62
2022/04/01 04:05:00;;;;;;;16.17;11.00;;;;;;;3.88;100.00;96193.88;5059938;28;20558;-62
2022/04/01 04:07:27;;;;;;;14.37;9.87;;;;;;;3.90;100.00;96191.13;5058810;28;20623;-62
2022/04/01 04:09:54;;;;;;;13.60;10.53;;;;;;;3.87;100.00;96207.03;5059772;28;20223;-62
2022/04/01 04:12:22;;;;;;;12.63;9.83;;;;;;;3.84;100.00;96202.88;5054917;28;20228;-62
2022/04/01 04:14:53;;;;;;;12.17;8.60;;;;;;;3.84;100.00;96202.88;5059735;28;20224;-61
2022/04/01 04:17:28;;;;;;;13.50;9.37;;;;;;;3.79;100.00;96199.75;5059571;28;20267;-62
2022/04/01 04:20:02;;;;;;;12.77;9.43;;;;;;;3.70;100.00;96205.66;5061004;28;20230;-62
2022/04/01 04:22:31;;;;;;;14.27;9.20;;;;;;;3.71;100.00;96207.34;5059492;28;20213;-62
2022/04/01 04:24:59;;;;;;;13.53;9.87;;;;;;;3.73;100.00;96210.66;5059259;28;20222;-62
2022/04/01 04:27:28;;;;;;;13.57;9.80;;;;;;;3.81;100.00;96203.13;5059482;28;20246;-62
2022/04/01 04:30:05;;;;;;;12.70;9.57;;;;;;;3.74;100.00;96217.53;5062031;28;20280;-62
2022/04/01 04:32:35;;;;;;;11.80;8.60;;;;;;;3.74;100.00;96212.31;5049057;28;20229;-61
2022/04/01 04:35:04;;;;;;;9.87;7.80;;;;;;;3.75;100.00;96208.78;5059345;28;20226;-63
2022/04/01 04:37:35;;;;;;;9.57;8.00;;;;;;;3.64;100.00;96221.78;5059566;28;20328;-62
2022/04/01 04:40:02;;;;;;;10.47;7.77;;;;;;;3.61;100.00;96218.56;5062249;28;20576;-63
2022/04/01 04:42:31;;;;;;;8.77;7.10;;;;;;;3.62;100.00;96217.59;5059070;28;20674;-63
2022/04/01 04:44:59;;;;;;;10.70;7.87;;;;;;;3.45;100.00;96225.81;5059093;28;20219;-62
2022/04/01 04:47:29;;;;;;;8.67;7.10;;;;;;;3.47;100.00;96229.97;5060300;28;20222;-63
2022/04/01 04:49:57;;;;;;;9.47;6.80;;;;;;;3.42;100.00;96226.88;5059726;28;20215;-62
2022/04/01 04:52:29;;;;;;;10.17;7.47;;;;;;;3.43;100.00;96228.53;5058940;28;20218;-62
2022/04/01 04:54:56;;;;;;;9.77;7.67;;;;;;;3.39;100.00;96227.09;5058967;28;20587;-62
2022/04/01 04:57:23;;;;;;;11.80;8.60;;;;;;;3.40;100.00;96239.19;5061308;28;20248;-63
2022/04/01 04:59:51;;;;;;;10.20;7.50;;;;;;;3.39;100.00;96232.31;5060686;28;20219;-63
2022/04/01 05:02:35;;;;;;;9.67;7.30;;;;;;;3.43;100.00;96236.34;5058951;28;20248;-62
2022/04/01 05:05:04;;;;;;;10.40;7.50;;;;;;;3.43;100.00;96238.16;5059049;28;20689;-62
2022/04/01 05:07:39;;;;;;;10.53;7.80;;;;;;;3.39;100.00;96241.91;5062204;28;20208;-62
2022/04/01 05:10:09;;;;;;;9.97;8.17;;;;;;;3.42;100.00;96241.72;5058440;28;20221;-62
2022/04/01 05:12:45;;;;;;;9.77;7.43;;;;;;;3.42;100.00;96244.31;5058493;28;20216;-64
2022/04/01 05:15:13;;;;;;;9.17;7.50;;;;;;;3.37;100.00;96239.41;5060085;28;20249;-63
2022/04/01 05:17:53;;;;;;;8.90;7.00;;;;;;;3.37;100.00;96243.81;5059111;28;20251;-62
2022/04/01 05:20:24;;;;;;;10.10;7.67;;;;;;;3.34;100.00;96246.63;5058137;28;20212;-61
2022/04/01 05:22:59;;;;;;;9.30;7.27;;;;;;;3.31;100.00;96252.88;5059457;28;20209;-63
2022/04/01 05:25:31;;;;;;;9.37;7.10;;;;;;;3.33;100.00;96253.63;5059876;28;20226;-63
2022/04/01 05:28:02;;;;;;;8.13;6.47;;;;;;;3.40;100.00;96260.09;5058260;28;20225;-63
2022/04/01 05:30:30;;;;;;;9.53;7.60;;;;;;;3.27;100.00;96256.69;5058230;28;20220;-63
2022/04/01 05:33:02;;;;;;;11.30;7.37;;;;;;;3.29;100.00;96262.63;5061714;28;20217;-62
2022/04/01 05:35:31;;;;;;;8.77;6.90;;;;;;;3.30;100.00;96264.28;5046285;28;20212;-62
2022/04/01 05:37:59;;;;;;;8.97;7.47;;;;;;;3.35;100.00;96261.34;5058131;28;20595;-63
2022/04/01 05:40:28;;;;;;;9.40;7.67;;;;;;;3.36;100.00;96263.84;5056722;28;20217;-62
2022/04/01 05:42:55;;;;;;;9.83;8.03;;;;;;;3.37;100.00;96270.72;5061552;28;21025;-62
2022/04/01 05:45:24;;;;;;;9.67;7.70;;;;;;;3.42;100.00;96268.63;5057174;28;20213;-62
2022/04/01 05:47:51;;;;;;;11.90;8.17;;;;;;;3.33;100.00;96274.53;5050696;28;20247;-62
2022/04/01 05:50:20;;;;;;;7.50;6.70;;;;;;;3.35;100.00;96283.06;5058537;28;20229;-62
2022/04/01 05:52:47;;;;;;;7.77;6.40;;;;;;;3.38;100.00;96282.03;5061113;28;20665;-62
2022/04/01 05:55:14;;;;;;;10.37;7.80;;;;;;;3.37;100.00;96281.16;5057888;28;20221;-62
2022/04/01 05:57:41;;;;;;;9.70;7.37;;;;;;;3.39;100.00;96289.75;5057661;28;20703;-62
2022/04/01 06:00:12;;;;;;;8.60;7.07;;;;;;;3.36;100.00;96289.94;5058329;28;20209;-62
2022/04/01 06:03:02;;;;;;;8.83;6.70;;;;;;;3.46;100.00;96291.00;5060834;28;20235;-62
2022/04/01 06:05:35;;;;;;;9.93;7.43;;;;;;;3.46;100.00;96303.19;5048515;28;20225;-62
2022/04/01 06:08:07;;;;;;;8.57;7.03;;;;;;;3.31;100.00;96302.50;5056811;28;20219;-62
2022/04/01 06:10:42;;;;;;;8.90;6.73;;;;;;;3.29;100.00;96299.16;5060107;28;20250;-62
2022/04/01 06:13:17;;;;;;;7.47;6.10;;;;;;;3.23;100.00;96302.19;5057342;28;20219;-62
2022/04/01 06:15:54;;;;;;;8.50;6.37;;;;;;;3.19;100.00;96303.34;5057455;28;20647;-63
2022/04/01 06:18:33;;;;;;;8.57;6.90;;;;;;;3.14;100.00;96302.84;5053797;28;20240;-63
2022/04/01 06:21:03;;;;;;;9.10;6.93;;;;;;;3.17;100.00;96302.63;5056953;28;20202;-62
2022/04/01 06:23:43;;;;;;;7.70;6.63;;;;;;;3.14;100.00;96297.63;5057325;28;20212;-62
2022/04/01 06:26:14;;;;;;;9.33;6.93;;;;;;;3.17;100.00;96309.63;5053772;28;20222;-62
2022/04/01 06:28:48;;;;;;;8.77;6.90;;;;;;;3.22;100.00;96313.56;5056987;28;20712;-61
2022/04/01 06:31:22;;;;;;;8.27;6.70;;;;;;;3.26;100.00;96315.06;5060123;28;20701;-63
2022/04/01 06:33:57;;;;;;;9.37;6.97;;;;;;;3.30;100.00;96316.47;5064984;28;20215;-62
2022/04/01 06:36:35;;;;;;;8.63;6.30;;;;;;;3.23;100.00;96323.06;5063796;28;20220;-62
2022/04/01 06:39:04;;;;;;;9.27;7.00;;;;;;;3.27;100.00;96321.94;5063871;28;20219;-62
2022/04/01 06:41:36;;;;;;;8.37;6.53;;;;;;;3.33;100.00;96321.50;5065085;28;20227;-62
2022/04/01 06:44:03;;;;;;;8.73;6.97;;;;;;;3.38;100.00;96326.41;5065794;28;20216;-62
2022/04/01 06:46:29;;;;;;;11.83;7.57;;;;;;;3.37;100.00;96322.13;5063556;28;20223;-62
2022/04/01 06:48:56;;;;;;;9.33;7.47;;;;;;;3.46;100.00;96321.47;5063499;28;20779;-62
2022/04/01 06:51:22;;;;;;;8.23;7.33;;;;;;;3.40;100.00;96322.75;5065218;28;20219;-63
2022/04/01 06:53:50;;;;;;;9.93;7.90;;;;;;;3.42;100.00;96326.06;5066364;28;20211;-62
2022/04/01 06:56:16;;;;;;;9.87;8.33;;;;;;;3.40;100.00;96329.72;5063759;28;20216;-62
2022/04/01 06:58:44;;;;;;;11.53;8.37;;;;;;;3.41;100.00;96329.63;5061903;28;20237;-63
2022/04/01 07:01:12;;;;;;;11.33;8.67;;;;;;;3.35;100.00;96327.44;5058282;28;20248;-63
2022/04/01 07:03:39;;;;;;;11.70;9.47;;;;;;;3.39;100.00;96328.06;5066418;28;20328;-63
2022/04/01 07:06:06;;;;;;;12.13;8.87;;;;;;;3.45;100.00;96330.25;5063234;28;20224;-63
2022/04/01 07:08:33;;;;;;;10.23;8.20;;;;;;;3.41;100.00;96332.25;5063512;28;20239;-62
2022/04/01 07:11:01;;;;;;;8.90;7.70;;;;;;;3.43;100.00;96332.97;5064662;28;20213;-63
2022/04/01 07:13:28;;;;;;;9.47;7.53;;;;;;;3.47;100.00;96337.03;5066179;28;20716;-63
2022/04/01 07:15:54;;;;;;;9.47;7.50;;;;;;;3.46;100.00;96335.38;5063614;28;20592;-63
2022/04/01 07:18:21;;;;;;;7.77;6.50;;;;;;;3.37;100.00;96332.56;5063394;28;20268;-63
2022/04/01 07:20:48;;;;;;;8.00;6.27;;;;;;;3.30;100.00;96337.38;5064049;28;20220;-62
2022/04/01 07:23:15;;;;;;;7.23;5.60;;;;;;;3.37;100.00;96333.38;5066499;28;20215;-63
2022/04/01 07:25:42;;;;;;;7.23;5.40;;;;;;;3.33;100.00;96336.31;5061375;28;20213;-63
2022/04/01 07:28:10;;;;;;;6.40;5.23;;;;;;;3.42;100.00;96336.53;5051283;28;20234;-63
2022/04/01 07:30:38;;;;;;;7.13;5.23;;;;;;;3.35;100.00;96340.50;5058479;28;20212;-62
2022/04/01 07:33:14;;;;;;;5.47;4.40;;;;;;;3.29;100.00;96340.06;5062613;28;20215;-63
2022/04/01 07:35:43;;;;;;;6.20;4.97;;;;;;;3.25;100.00;96347.28;5060035;28;20213;-64
2022/04/01 07:38:09;;;;;;;6.87;4.57;;;;;;;3.18;100.00;96343.44;5039548;28;20638;-63
2022/04/01 07:40:36;;;;;;;7.00;5.20;;;;;;;3.21;100.00;96353.69;5055201;28;20225;-63
2022/04/01 07:43:02;;;;;;;5.80;4.90;;;;;;;3.29;100.00;96351.38;5048421;28;20219;-62
2022/04/01 07:45:33;;;;;;;5.70;4.67;;;;;;;3.34;100.00;96349.28;5054163;28;20221;-63
2022/04/01 07:48:00;;;;;;;5.67;4.37;;;;;;;3.36;100.00;96352.59;5037133;28;20226;-63
2022/04/01 07:50:28;;;;;;;4.93;4.17;;;;;;;3.25;100.00;96360.34;5062793;28;20217;-63
2022/04/01 07:52:54;;;;;;;5.57;4.70;;;;;;;3.17;100.00;96361.81;5065565;28;20211;-63
2022/04/01 07:55:22;;;;;;;5.07;4.13;;;;;;;3.23;100.00;96356.16;5065109;28;20222;-63
2022/04/01 07:57:52;;;;;;;4.70;4.20;;;;;;;3.24;100.00;96363.06;5062983;28;20309;-64
2022/04/01 08:00:19;;;;;;;5.77;4.80;;;;;;;3.11;100.00;96357.84;5063947;28;20229;-64
2022/04/01 08:02:47;;;;;;;5.77;4.43;;;;;;;3.17;100.00;96354.00;5066495;28;20243;-64
2022/04/01 08:05:14;;;;;;;6.23;4.47;;;;;;;3.17;100.00;96362.66;5064498;28;20247;-64
2022/04/01 08:07:41;;;;;;;5.43;4.27;;;;;;;3.10;100.00;96366.63;5062980;28;20585;-65
2022/04/01 08:10:08;;;;;;;6.73;4.47;;;;;;;3.07;100.00;96366.81;5064940;28;20222;-64
2022/04/01 08:12:35;;;;;;;6.73;4.90;;;;;;;3.10;100.00;96366.63;5066594;28;20274;-63
2022/04/01 08:15:02;;;;;;;6.27;4.80;;;;;;;3.15;100.00;96374.97;5064923;28;20224;-65
2022/04/01 08:17:29;;;;;;;5.90;4.57;;;;;;;3.14;100.00;96368.09;5062321;28;20261;-65
2022/04/01 08:19:57;;;;;;;6.30;4.60;;;;;;;3.22;100.00;96371.00;5063411;28;20589;-64
2022/04/01 08:22:23;;;;;;;6.87;5.03;;;;;;;3.33;100.00;96378.94;5064979;28;20223;-63
2022/04/01 08:24:50;;;;;;;6.77;4.87;;;;;;;3.38;100.00;96386.44;5064885;28;20223;-64
2022/04/01 08:27:16;;;;;;;6.20;4.67;;;;;;;3.20;100.00;96385.94;5062255;28;20300;-66
2022/04/01 08:29:44;;;;;;;6.13;5.07;;;;;;;3.18;100.00;96385.19;5064215;28;20219;-65
2022/04/01 08:32:11;;;;;;;7.40;4.90;;;;;;;3.19;100.00;96386.84;5066170;28;20224;-65
2022/04/01 08:34:38;;;;;;;6.50;5.13;;;;;;;3.18;100.00;96394.81;5065214;28;20220;-64
2022/04/01 08:37:07;;;;;;;7.20;4.93;;;;;;;3.26;100.00;96388.13;5062150;28;20679;-64
2022/04/01 08:39:34;;;;;;;5.47;4.63;;;;;;;3.27;100.00;96402.84;5063949;28;20245;-64
2022/04/01 08:42:02;;;;;;;6.03;4.37;;;;;;;3.17;100.00;96404.41;5066014;28;20219;-64
2022/04/01 08:44:29;;;;;;;6.47;5.13;;;;;;;3.22;100.00;96404.94;5063111;28;20211;-65
2022/04/01 08:46:55;;;;;;;6.37;5.10;;;;;;;3.12;100.00;96408.28;5062321;28;20219;-65
2022/04/01 08:49:22;;;;;;;6.13;5.20;;;;;;;2.99;100.00;96416.06;5063669;28;20222;-66
2022/04/01 08:51:49;;;;;;;6.63;4.97;;;;;;;2.93;100.00;96415.66;5065845;28;20224;-66
2022/04/01 08:54:17;;;;;;;6.63;4.90;;;;;;;2.94;100.00;96415.53;5064414;28;20221;-66
2022/04/01 08:56:43;;;;;;;5.80;4.70;;;;;;;3.02;100.00;96428.94;5061692;28;20710;-63
2022/04/01 08:59:10;;;;;;;6.37;4.63;;;;;;;2.90;100.00;96429.75;5062896;28;20240;-65
2022/04/01 09:01:42;;;;;;;6.37;5.10;;;;;;;2.88;100.00;96428.97;5065258;28;20219;-64
2022/04/01 09:04:20;;;;;;;6.57;4.87;;;;;;;3.02;100.00;96431.53;5064527;28;20214;-64
2022/04/01 09:06:46;;;;;;;7.33;4.80;;;;;;;3.03;100.00;96422.78;5056789;28;20218;-64
2022/04/01 09:09:24;;;;;;;6.33;5.27;;;;;;;3.06;100.00;96427.78;5064727;28;20587;-64
2022/04/01 09:12:05;;;;;;;7.30;4.90;;;;;;;3.15;100.00;96428.94;5063802;28;20212;-64
2022/04/01 09:14:31;;;;;;;6.07;4.60;;;;;;;3.10;100.00;96438.84;5057990;28;20812;-64
2022/04/01 09:16:58;;;;;;;5.63;4.47;;;;;;;3.10;100.00;96438.84;5061929;28;20220;-64
2022/04/01 09:19:30;;;;;;;6.17;4.90;;;;;;;3.12;100.00;96448.25;5065010;28;20242;-64
2022/04/01 09:21:56;;;;;;;7.03;5.30;;;;;;;3.14;100.00;96446.38;5063076;28;20211;-64
2022/04/01 09:24:25;;;;;;;6.87;5.17;;;;;;;3.19;100.00;96446.88;5061206;28;20220;-64
2022/04/01 09:26:55;;;;;;;6.43;5.03;;;;;;;3.32;100.00;96447.75;5063888;28;20275;-64
2022/04/01 09:29:24;;;;;;;6.80;5.10;;;;;;;3.26;100.00;96448.19;5064608;28;20215;-64
2022/04/01 09:31:53;;;;;;;7.80;5.97;;;;;;;3.19;100.00;96454.72;5062198;28;20227;-64
2022/04/01 09:34:19;;;;;;;7.33;5.67;;;;;;;3.10;100.00;96455.34;5060793;28;20212;-65
2022/04/01 09:36:46;;;;;;;8.00;5.80;;;;;;;3.00;100.00;96454.28;5064031;28;20211;-64
2022/04/01 09:39:16;;;;;;;8.13;5.63;;;;;;;3.02;100.00;96452.41;5063240;28;20235;-64
2022/04/01 09:41:46;;;;;;;7.33;5.63;;;;;;;3.07;100.00;96458.13;5062385;28;20217;-65
2022/04/01 09:44:15;;;;;;;7.40;5.63;;;;;;;3.04;100.00;96460.13;5056649;28;20302;-64
2022/04/01 09:46:44;;;;;;;6.43;5.30;;;;;;;3.00;100.00;96464.69;5047366;28;20217;-64
2022/04/01 09:49:11;;;;;;;9.60;6.33;;;;;;;3.10;100.00;96455.34;5064810;28;20221;-64
2022/04/01 09:51:42;;;;;;;6.87;5.33;;;;;;;3.25;100.00;96461.31;5061220;28;20625;-64
2022/04/01 09:54:09;;;;;;;6.53;5.17;;;;;;;3.23;100.00;96461.41;5061388;28;20218;-64
2022/04/01 09:56:37;;;;;;;6.77;5.37;;;;;;;3.26;100.00;96455.16;5064568;28;20214;-64
2022/04/01 09:59:07;;;;;;;5.47;4.70;;;;;;;3.28;100.00;96464.56;5064190;28;20247;-63
2022/04/01 10:01:34;;;;;;;5.67;4.63;;;;;;;3.18;100.00;96463.50;5058003;28;20684;-64
2022/04/01 10:04:01;;;;;;;6.77;5.37;;;;;;;3.22;100.00;96462.34;5059927;28;20210;-64
2022/04/01 10:06:28;;;;;;;7.87;5.63;;;;;;;3.37;100.00;96474.38;5063837;28;20672;-64
2022/04/01 10:08:56;;;;;;;5.87;4.80;;;;;;;3.32;100.00;96475.63;5064330;28;20219;-65
2022/04/01 10:11:23;;;;;;;5.67;4.57;;;;;;;3.43;100.00;96473.97;5057982;28;20224;-64
2022/04/01 10:13:51;;;;;;;5.03;4.53;;;;;;;3.43;100.00;96475.75;5060916;28;20268;-64
2022/04/01 10:16:21;;;;;;;3.80;3.37;;;;;;;3.29;100.00;96481.88;5064184;28;20217;-63
2022/04/01 10:18:49;;;;;;;4.10;3.73;;;;;;;3.23;100.00;96471.84;5063945;28;20241;-63
2022/04/01 10:21:18;;;;;;;3.67;3.33;;;;;;;3.13;100.00;96476.00;5059146;28;20209;-64
2022/04/01 10:23:54;;;;;;;4.00;3.60;;;;;;;3.16;100.00;96481.03;5061784;28;20229;-64
2022/04/01 10:26:22;;;;;;;4.97;4.40;;;;;;;3.06;100.00;96482.56;5064424;28;20582;-64
2022/04/01 10:28:51;;;;;;;5.10;4.47;;;;;;;3.13;100.00;96483.84;5062134;28;20248;-64
2022/04/01 10:31:20;;;;;;;6.13;4.90;;;;;;;3.18;100.00;96479.16;5058901;28;20223;-64
2022/04/01 10:33:47;;;;;;;5.73;5.10;;;;;;;3.29;100.00;96487.13;5063094;28;20758;-66
2022/04/01 10:36:16;;;;;;;5.70;5.10;;;;;;;3.21;100.00;96480.72;5064040;28;20219;-64
2022/04/01 10:38:42;;;;;;;5.73;5.00;;;;;;;3.10;100.00;96486.66;5062105;28;20240;-64
2022/04/01 10:41:12;;;;;;;5.67;5.17;;;;;;;3.00;100.00;96489.97;5060124;28;20684;-64
2022/04/01 10:43:41;;;;;;;7.37;6.03;;;;;;;3.04;100.00;96494.03;5063564;28;20216;-65
2022/04/01 10:46:10;;;;;;;5.83;4.97;;;;;;;3.06;100.00;96500.03;5064078;28;20218;-64
2022/04/01 10:51:39;;;;;;;6.07;5.47;;;;;;;3.19;100.00;96493.06;5062388;28;20215;-64
2022/04/01 10:54:42;;;;;;;6.13;5.53;;;;;;;3.07;100.00;96493.84;5063932;28;20221;-65
2022/04/01 10:57:10;;;;;;;6.13;5.53;;;;;;;2.99;100.00;96496.13;5058059;28;20586;-64
2022/04/01 10:59:42;;;;;;;6.50;5.90;;;;;;;3.11;100.00;96493.56;5062760;28;20285;-64
2022/04/01 11:02:10;;;;;;;5.97;5.30;;;;;;;3.19;100.00;96496.47;5062586;28;20236;-64
2022/04/01 11:04:41;;;;;;;5.43;4.63;;;;;;;3.13;100.00;96512.53;5059622;28;20218;-64
2022/04/01 11:07:09;;;;;;;5.03;4.50;;;;;;;2.95;100.00;96499.88;5062236;28;20592;-63
2022/04/01 11:09:45;;;;;;;5.07;4.50;;;;;;;2.91;100.00;96509.69;5063732;28;20227;-65
2022/04/01 11:12:31;;;;;;;5.47;4.60;;;;;;;2.85;100.00;96512.69;5060910;28;20221;-65
2022/04/01 11:15:13;;;;;;;5.60;4.70;;;;;;;2.86;100.00;96509.13;5062336;28;20556;-66
2022/04/01 11:18:02;;;;;;;5.43;4.93;;;;;;;2.96;100.00;96512.81;5065793;28;20220;-66
2022/04/01 11:20:32;;;;;;;5.40;4.70;;;;;;;2.95;100.00;96516.34;5063727;28;20212;-64
2022/04/01 11:23:06;;;;;;;5.47;4.87;;;;;;;2.96;100.00;96515.44;5066718;28;20208;-64
2022/04/01 11:25:55;;;;;;;4.70;4.13;;;;;;;2.94;100.00;96506.84;5066328;28;20262;-64
2022/04/01 11:28:24;;;;;;;5.33;4.83;;;;;;;3.05;100.00;96514.81;5063628;28;20216;-66
2022/04/01 11:31:15;;;;;;;6.00;5.13;;;;;;;3.09;100.00;96516.31;5066573;28;20216;-65
2022/04/01 11:34:01;;;;;;;6.60;5.70;;;;;;;3.12;100.00;96521.31;5065464;28;20217;-65
2022/04/01 11:36:29;;;;;;;6.17;5.33;;;;;;;3.06;100.00;96521.72;5061341;28;20257;-65
2022/04/01 11:38:56;;;;;;;5.63;4.60;;;;;;;3.04;100.00;96526.19;5067149;28;20235;-65
2022/04/01 11:41:23;;;;;;;6.13;4.47;;;;;;;3.06;100.00;96521.72;5066707;28;20622;-65
2022/04/01 11:43:50;;;;;;;5.60;4.77;;;;;;;3.00;100.00;96532.53;5063400;28;20242;-65